Terminal Aerodrome Forecast
Issued by NWS

Home | Current Version | Previous Version | Text Only | Print | Product List | Glossary On
Versions: 1 2 3 4 5 6 7 8 9 10 11 12 13 14 15 16 17 18 19 20 21 22 23 24 25 26 27
000
FTUS43 KLSX 311400 AAB
TAFCPS
TAF AMD
KCPS 311428Z 3114/0112 22005KT P6SM SCT013
      TEMPO 3114/3116 BKN013
     FM311600 20007KT P6SM SCT030
     FM010000 16006KT P6SM SCT250=

USA.gov is the U.S. government's official web portal to all federal, state and local government web resources and services.